createdAt,value
2023-04-18T00:00:52.889Z,610.00
2023-04-18T00:01:52.972Z,609.00
2023-04-18T00:02:53.147Z,609.00
2023-04-18T00:03:53.268Z,611.00
2023-04-18T00:04:53.143Z,612.00
2023-04-18T00:05:52.997Z,610.00
2023-04-18T00:06:53.024Z,609.00
2023-04-18T00:07:53.044Z,608.00
2023-04-18T00:08:53.073Z,610.00
2023-04-18T00:09:53.066Z,609.00
2023-04-18T00:10:53.112Z,612.00
2023-04-18T00:11:53.105Z,611.00
2023-04-18T00:12:53.105Z,611.00
2023-04-18T00:13:53.139Z,609.00
2023-04-18T00:14:53.139Z,613.00
2023-04-18T00:15:53.155Z,613.00
2023-04-18T00:16:53.221Z,613.00
2023-04-18T00:17:53.295Z,612.00
2023-04-18T00:18:53.211Z,613.00
2023-04-18T00:19:53.237Z,614.00
2023-04-18T00:20:53.249Z,616.00
2023-04-18T00:21:53.329Z,616.00
2023-04-18T00:22:53.295Z,613.00
2023-04-18T00:23:53.348Z,615.00
2023-04-18T00:24:53.365Z,613.00
2023-04-18T00:25:53.368Z,617.00
2023-04-18T00:26:53.395Z,617.00
2023-04-18T00:27:53.446Z,615.00
2023-04-18T00:28:53.446Z,615.00
2023-04-18T00:29:53.466Z,613.00
2023-04-18T00:30:53.516Z,610.00
2023-04-18T00:31:53.550Z,611.00
2023-04-18T00:32:53.456Z,609.00
2023-04-18T00:33:53.407Z,610.00
2023-04-18T00:34:53.374Z,605.00
2023-04-18T00:35:53.340Z,604.00
2023-04-18T00:36:53.316Z,608.00
2023-04-18T00:37:53.302Z,608.00
2023-04-18T00:38:53.277Z,609.00
2023-04-18T00:39:53.258Z,607.00
2023-04-18T00:40:53.225Z,610.00
2023-04-18T00:41:53.202Z,611.00
2023-04-18T00:42:53.184Z,614.00
2023-04-18T00:43:53.337Z,614.00
2023-04-18T00:44:53.252Z,615.00
2023-04-18T00:45:53.145Z,614.00
2023-04-18T00:46:53.107Z,610.00
2023-04-18T00:47:53.153Z,607.00
2023-04-18T00:48:53.133Z,607.00
2023-04-18T00:49:53.161Z,605.00
2023-04-18T00:50:53.178Z,607.00
2023-04-18T00:51:53.220Z,605.00
2023-04-18T00:52:53.238Z,604.00
2023-04-18T00:53:53.250Z,603.00
2023-04-18T00:54:53.283Z,603.00
2023-04-18T00:55:53.295Z,608.00
2023-04-18T00:56:53.400Z,608.00
2023-04-18T00:57:53.348Z,606.00
2023-04-18T00:58:53.362Z,605.00
2023-04-18T00:59:53.391Z,607.00
2023-04-18T01:00:53.360Z,604.00
2023-04-18T01:01:53.567Z,601.00
2023-04-18T01:02:53.546Z,603.00
2023-04-18T01:03:53.423Z,600.00
2023-04-18T01:04:53.277Z,600.00
2023-04-18T01:05:53.237Z,604.00
2023-04-18T01:06:53.241Z,604.00
2023-04-18T01:07:53.199Z,604.00
2023-04-18T01:08:53.174Z,604.00
2023-04-18T01:09:53.173Z,605.00
2023-04-18T01:10:53.131Z,608.00
2023-04-18T01:11:53.106Z,608.00
2023-04-18T01:12:53.072Z,609.00
2023-04-18T01:13:53.050Z,606.00
2023-04-18T01:14:53.022Z,605.00
2023-04-18T01:15:53.086Z,604.00
2023-04-18T01:16:53.073Z,602.00
2023-04-18T01:17:53.110Z,601.00
2023-04-18T01:18:53.114Z,602.00
2023-04-18T01:19:53.130Z,603.00
2023-04-18T01:20:53.206Z,602.00
2023-04-18T01:21:53.162Z,604.00
2023-04-18T01:22:53.198Z,603.00
2023-04-18T01:23:53.195Z,603.00
2023-04-18T01:24:53.225Z,602.00
2023-04-18T01:25:53.237Z,602.00
2023-04-18T01:26:53.267Z,602.00
2023-04-18T01:27:53.293Z,599.00
2023-04-18T01:28:53.310Z,599.00
2023-04-18T01:29:53.347Z,598.00
2023-04-18T01:30:53.403Z,599.00
2023-04-18T01:31:53.405Z,598.00
2023-04-18T01:32:53.497Z,598.00
2023-04-18T01:33:53.448Z,597.00
2023-04-18T01:34:53.473Z,597.00
2023-04-18T01:35:53.518Z,596.00
2023-04-18T01:36:53.532Z,595.00
2023-04-18T01:37:53.556Z,594.00
2023-04-18T01:38:53.597Z,597.00
2023-04-18T01:39:53.603Z,596.00
2023-04-18T01:40:53.640Z,594.00
2023-04-18T01:41:53.697Z,593.00
2023-04-18T01:42:53.675Z,590.00
2023-04-18T01:43:53.697Z,585.00
2023-04-18T01:44:53.699Z,588.00
2023-04-18T01:45:53.716Z,587.00
2023-04-18T01:46:53.855Z,590.00
2023-04-18T01:47:53.770Z,592.00
2023-04-18T01:48:53.778Z,590.00
2023-04-18T01:49:53.801Z,590.00
2023-04-18T01:50:53.812Z,589.00
2023-04-18T01:51:53.826Z,589.00
2023-04-18T01:52:53.852Z,590.00
2023-04-18T01:53:53.870Z,593.00
2023-04-18T01:54:53.893Z,592.00
2023-04-18T01:55:53.938Z,598.00
2023-04-18T01:56:53.941Z,594.00
2023-04-18T01:57:53.965Z,595.00
2023-04-18T01:58:53.998Z,594.00
2023-04-18T01:59:53.966Z,592.00
2023-04-18T02:00:53.976Z,590.00
2023-04-18T02:01:53.966Z,590.00
2023-04-18T02:02:53.966Z,589.00
2023-04-18T02:03:54.212Z,588.00
2023-04-18T02:04:53.836Z,585.00
2023-04-18T02:05:53.805Z,588.00
2023-04-18T02:06:53.766Z,590.00
2023-04-18T02:07:53.740Z,591.00
2023-04-18T02:08:53.710Z,591.00
2023-04-18T02:09:53.684Z,591.00
2023-04-18T02:10:53.656Z,585.00
2023-04-18T02:11:53.619Z,584.00
2023-04-18T02:12:53.591Z,583.00
2023-04-18T02:13:53.619Z,582.00
2023-04-18T02:14:53.618Z,584.00
2023-04-18T02:15:53.650Z,585.00
2023-04-18T02:16:53.734Z,586.00
2023-04-18T02:17:53.728Z,586.00
2023-04-18T02:18:53.714Z,585.00
2023-04-18T02:19:53.735Z,586.00
2023-04-18T02:20:53.768Z,587.00
2023-04-18T02:21:53.772Z,587.00
2023-04-18T02:22:53.796Z,587.00
2023-04-18T02:23:53.847Z,587.00
2023-04-18T02:24:53.853Z,587.00
2023-04-18T02:25:53.868Z,586.00
2023-04-18T02:26:53.873Z,587.00
2023-04-18T02:27:53.908Z,590.00
2023-04-18T02:28:53.938Z,594.00
2023-04-18T02:29:53.959Z,593.00
2023-04-18T02:30:53.993Z,593.00
2023-04-18T02:31:54.053Z,595.00
2023-04-18T02:32:54.041Z,592.00
2023-04-18T02:33:54.065Z,592.00
2023-04-18T02:34:54.086Z,594.00
2023-04-18T02:35:54.140Z,594.00
2023-04-18T02:36:54.138Z,593.00
2023-04-18T02:37:54.175Z,592.00
2023-04-18T02:38:54.200Z,591.00
2023-04-18T02:39:54.247Z,591.00
2023-04-18T02:40:54.248Z,590.00
2023-04-18T02:41:54.290Z,588.00
2023-04-18T02:42:54.315Z,589.00
2023-04-18T02:43:54.323Z,589.00
2023-04-18T02:44:54.352Z,590.00
2023-04-18T02:45:54.401Z,587.00
2023-04-18T02:46:54.350Z,587.00
2023-04-18T02:47:56.470Z,585.00
2023-04-18T02:48:54.298Z,587.00
2023-04-18T02:49:54.277Z,584.00
2023-04-18T02:50:54.286Z,581.00
2023-04-18T02:51:54.317Z,578.00
2023-04-18T02:52:54.328Z,576.00
2023-04-18T02:53:54.366Z,574.00
2023-04-18T02:54:54.329Z,575.00
2023-04-18T02:55:54.298Z,576.00
2023-04-18T02:56:54.274Z,577.00
2023-04-18T02:57:54.268Z,573.00
2023-04-18T02:58:54.225Z,565.00
2023-04-18T02:59:54.186Z,557.00
2023-04-18T03:00:54.261Z,554.00
2023-04-18T03:01:54.165Z,551.00
2023-04-18T03:02:54.178Z,549.00
2023-04-18T03:03:54.082Z,546.00
2023-04-18T03:04:54.083Z,540.00
2023-04-18T03:05:54.073Z,536.00
2023-04-18T03:06:54.135Z,533.00
2023-04-18T03:07:54.176Z,529.00
2023-04-18T03:08:54.223Z,522.00
2023-04-18T03:09:54.287Z,516.00
2023-04-18T03:10:56.102Z,511.00
2023-04-18T03:11:54.646Z,510.00
2023-04-18T03:12:54.431Z,506.00
2023-04-18T03:13:54.472Z,507.00
2023-04-18T03:14:54.508Z,505.00
2023-04-18T03:15:54.586Z,501.00
2023-04-18T03:16:55.397Z,497.00
2023-04-18T03:17:54.558Z,493.00
2023-04-18T03:18:54.502Z,493.00
2023-04-18T03:19:54.512Z,491.00
2023-04-18T03:20:54.490Z,491.00
2023-04-18T03:21:54.483Z,490.00
2023-04-18T03:22:54.476Z,489.00
2023-04-18T03:23:54.480Z,489.00
2023-04-18T03:24:54.482Z,489.00
2023-04-18T03:25:54.485Z,487.00
2023-04-18T03:26:54.467Z,487.00
2023-04-18T03:27:54.456Z,487.00
2023-04-18T03:28:54.454Z,487.00
2023-04-18T03:29:54.453Z,485.00
2023-04-18T03:30:54.489Z,486.00
2023-04-18T03:31:54.465Z,484.00
2023-04-18T03:32:54.442Z,482.00
2023-04-18T03:33:54.444Z,479.00
2023-04-18T03:34:54.435Z,476.00
2023-04-18T03:35:54.442Z,473.00
2023-04-18T03:36:54.429Z,471.00
2023-04-18T03:37:54.444Z,474.00
2023-04-18T03:38:54.423Z,473.00
2023-04-18T03:39:54.410Z,473.00
2023-04-18T03:40:54.403Z,474.00
2023-04-18T03:41:54.384Z,471.00
2023-04-18T03:42:54.372Z,469.00
2023-04-18T03:43:54.384Z,474.00
2023-04-18T03:44:54.362Z,474.00
2023-04-18T03:45:54.373Z,479.00
2023-04-18T03:46:54.348Z,479.00
2023-04-18T03:47:54.417Z,475.00
2023-04-18T03:48:54.316Z,474.00
2023-04-18T03:49:54.319Z,471.00
2023-04-18T03:50:54.303Z,471.00
2023-04-18T03:51:54.320Z,470.00
2023-04-18T03:52:54.305Z,467.00
2023-04-18T03:53:54.324Z,469.00
2023-04-18T03:54:54.275Z,468.00
2023-04-18T03:55:54.272Z,469.00
2023-04-18T03:56:54.268Z,466.00
2023-04-18T03:57:54.258Z,466.00
2023-04-18T03:58:54.237Z,465.00
2023-04-18T03:59:54.248Z,464.00
2023-04-18T04:00:54.231Z,465.00
2023-04-18T04:01:54.310Z,465.00
2023-04-18T04:02:54.371Z,467.00
2023-04-18T04:03:54.401Z,467.00
2023-04-18T04:04:54.238Z,467.00
2023-04-18T04:05:54.195Z,465.00
2023-04-18T04:06:54.199Z,465.00
2023-04-18T04:07:54.152Z,464.00
2023-04-18T04:08:54.148Z,461.00
2023-04-18T04:09:54.133Z,461.00
2023-04-18T04:10:54.131Z,457.00
2023-04-18T04:11:54.120Z,455.00
2023-04-18T04:12:54.112Z,456.00
2023-04-18T04:13:54.100Z,457.00
2023-04-18T04:14:54.087Z,460.00
2023-04-18T04:15:54.156Z,462.00
2023-04-18T04:16:54.080Z,465.00
2023-04-18T04:17:54.126Z,468.00
2023-04-18T04:18:54.074Z,470.00
2023-04-18T04:19:54.055Z,469.00
2023-04-18T04:20:54.060Z,467.00
2023-04-18T04:21:54.096Z,470.00
2023-04-18T04:22:54.063Z,468.00
2023-04-18T04:23:54.075Z,465.00
2023-04-18T04:24:54.050Z,462.00
2023-04-18T04:25:54.046Z,464.00
2023-04-18T04:26:54.048Z,462.00
2023-04-18T04:27:54.050Z,461.00
2023-04-18T04:28:54.048Z,463.00
2023-04-18T04:29:54.052Z,463.00
2023-04-18T04:30:54.049Z,460.00
2023-04-18T04:31:54.116Z,459.00
2023-04-18T04:32:54.069Z,456.00
2023-04-18T04:33:54.038Z,459.00
2023-04-18T04:34:54.038Z,460.00
2023-04-18T04:35:54.033Z,461.00
2023-04-18T04:36:54.066Z,464.00
2023-04-18T04:37:54.135Z,460.00
2023-04-18T04:38:54.125Z,458.00
2023-04-18T04:39:54.149Z,456.00
2023-04-18T04:40:54.183Z,459.00
2023-04-18T04:41:54.206Z,458.00
2023-04-18T04:42:54.272Z,463.00
2023-04-18T04:43:54.275Z,463.00
2023-04-18T04:44:54.340Z,462.00
2023-04-18T04:45:54.357Z,462.00
2023-04-18T04:46:54.406Z,460.00
2023-04-18T04:47:54.419Z,460.00
2023-04-18T04:48:54.456Z,462.00
2023-04-18T04:49:54.480Z,461.00
2023-04-18T04:50:54.505Z,462.00
2023-04-18T04:51:54.542Z,462.00
2023-04-18T04:52:54.575Z,462.00
2023-04-18T04:53:54.609Z,463.00
2023-04-18T04:54:54.642Z,462.00
2023-04-18T04:55:54.675Z,462.00
2023-04-18T04:56:54.695Z,462.00
2023-04-18T04:57:54.727Z,459.00
2023-04-18T04:58:54.779Z,458.00
2023-04-18T04:59:54.801Z,461.00
2023-04-18T05:00:54.959Z,461.00
2023-04-18T05:01:54.886Z,459.00
2023-04-18T05:02:55.006Z,461.00
2023-04-18T05:03:55.014Z,461.00
2023-04-18T05:04:54.989Z,463.00
2023-04-18T05:05:55.033Z,465.00
2023-04-18T05:06:55.076Z,466.00
2023-04-18T05:07:55.113Z,465.00
2023-04-18T05:08:55.167Z,464.00
2023-04-18T05:09:55.184Z,465.00
2023-04-18T05:10:55.207Z,466.00
2023-04-18T05:11:55.258Z,466.00
2023-04-18T05:12:55.303Z,464.00
2023-04-18T05:13:55.291Z,463.00
2023-04-18T05:14:55.310Z,464.00
2023-04-18T05:15:55.293Z,461.00
2023-04-18T05:16:55.306Z,459.00
2023-04-18T05:17:55.307Z,458.00
2023-04-18T05:18:55.294Z,459.00
2023-04-18T05:19:55.301Z,459.00
2023-04-18T05:20:55.297Z,456.00
2023-04-18T05:21:55.293Z,453.00
2023-04-18T05:22:55.298Z,454.00
2023-04-18T05:23:55.288Z,452.00
2023-04-18T05:24:55.297Z,451.00
2023-04-18T05:25:55.283Z,450.00
2023-04-18T05:26:55.296Z,450.00
2023-04-18T05:27:55.335Z,451.00
2023-04-18T05:28:55.374Z,455.00
2023-04-18T05:29:55.402Z,456.00
2023-04-18T05:30:55.424Z,457.00
2023-04-18T05:31:55.384Z,458.00
2023-04-18T05:32:55.449Z,457.00
2023-04-18T05:33:55.424Z,464.00
2023-04-18T05:34:55.378Z,494.00
2023-04-18T05:35:55.376Z,587.00
2023-04-18T05:36:55.364Z,599.00
2023-04-18T05:37:55.372Z,661.00
2023-04-18T05:38:55.357Z,651.00
2023-04-18T05:39:55.337Z,660.00
2023-04-18T05:40:55.336Z,679.00
2023-04-18T05:41:55.321Z,694.00
2023-04-18T05:42:55.311Z,755.00
2023-04-18T05:44:04.676Z,774.00
2023-04-18T05:44:56.282Z,815.00
2023-04-18T05:45:57.646Z,820.00
2023-04-18T05:46:55.682Z,833.00
2023-04-18T05:47:55.599Z,901.00
2023-04-18T05:48:55.571Z,913.00
2023-04-18T05:49:55.643Z,920.00
2023-04-18T05:50:55.741Z,923.00
2023-04-18T05:51:55.741Z,966.00
2023-04-18T05:52:55.785Z,938.00
2023-04-18T05:53:55.880Z,629.00
2023-04-18T05:54:55.826Z,582.00
2023-04-18T05:55:55.824Z,568.00
2023-04-18T05:56:55.872Z,553.00
2023-04-18T05:57:55.923Z,539.00
2023-04-18T05:58:56.005Z,525.00
2023-04-18T05:59:56.048Z,511.00
2023-04-18T06:00:56.141Z,496.00
2023-04-18T06:01:56.218Z,483.00
2023-04-18T06:02:56.463Z,484.00
2023-04-18T06:03:56.409Z,489.00
2023-04-18T06:04:56.459Z,497.00
2023-04-18T06:05:56.352Z,562.00
2023-04-18T06:06:56.304Z,571.00
2023-04-18T06:07:56.325Z,581.00
2023-04-18T06:08:56.324Z,589.00
2023-04-18T06:09:56.335Z,645.00
2023-04-18T06:10:56.341Z,678.00
2023-04-18T06:11:56.340Z,667.00
2023-04-18T06:12:56.328Z,651.00
2023-04-18T06:13:56.359Z,615.00
2023-04-18T06:14:56.346Z,597.00
2023-04-18T06:15:56.373Z,584.00
2023-04-18T06:16:56.353Z,578.00
2023-04-18T06:17:56.451Z,569.00
2023-04-18T06:18:56.986Z,573.00
2023-04-18T06:19:56.481Z,569.00
2023-04-18T06:20:56.586Z,574.00
2023-04-18T06:21:56.605Z,580.00
2023-04-18T06:22:56.657Z,579.00
2023-04-18T06:23:56.782Z,576.00
2023-04-18T06:24:56.799Z,579.00
2023-04-18T06:25:56.849Z,580.00
2023-04-18T06:26:56.960Z,573.00
2023-04-18T06:27:56.984Z,571.00
2023-04-18T06:28:57.069Z,565.00
2023-04-18T06:29:57.120Z,562.00
2023-04-18T06:30:57.200Z,562.00
2023-04-18T06:31:57.279Z,565.00
2023-04-18T06:32:57.253Z,564.00
2023-04-18T06:33:57.232Z,559.00
2023-04-18T06:34:57.303Z,558.00
2023-04-18T06:35:57.260Z,558.00
2023-04-18T06:36:57.256Z,558.00
2023-04-18T06:37:57.254Z,558.00
2023-04-18T06:38:57.327Z,645.00
2023-04-18T06:39:57.395Z,666.00
2023-04-18T06:40:57.268Z,691.00
2023-04-18T06:41:57.271Z,759.00
2023-04-18T06:42:57.270Z,771.00
2023-04-18T06:44:02.837Z,789.00
2023-04-18T06:44:58.260Z,804.00
2023-04-18T06:45:57.303Z,863.00
2023-04-18T06:46:57.259Z,858.00
2023-04-18T06:47:57.319Z,739.00
2023-04-18T06:48:57.317Z,693.00
2023-04-18T06:49:57.250Z,656.00
2023-04-18T06:50:57.254Z,656.00
2023-04-18T06:51:57.248Z,639.00
2023-04-18T06:52:57.263Z,634.00
2023-04-18T06:53:57.247Z,629.00
2023-04-18T06:54:57.242Z,623.00
2023-04-18T06:55:57.238Z,615.00
2023-04-18T06:56:57.248Z,612.00
2023-04-18T06:57:57.243Z,600.00
2023-04-18T06:58:57.252Z,598.00
2023-04-18T06:59:57.248Z,605.00
2023-04-18T07:00:57.289Z,605.00
2023-04-18T07:01:57.277Z,596.00
2023-04-18T07:02:57.397Z,585.00
2023-04-18T07:03:57.413Z,568.00
2023-04-18T07:04:57.329Z,562.00
2023-04-18T07:05:57.347Z,560.00
2023-04-18T07:06:57.391Z,562.00
2023-04-18T07:07:57.436Z,556.00
2023-04-18T07:08:57.479Z,549.00
2023-04-18T07:09:57.512Z,541.00
2023-04-18T07:10:57.548Z,526.00
2023-04-18T07:11:57.671Z,523.00
2023-04-18T07:12:57.642Z,529.00
2023-04-18T07:13:57.682Z,528.00
2023-04-18T07:14:57.734Z,524.00
2023-04-18T07:15:57.784Z,520.00
2023-04-18T07:16:57.900Z,524.00
2023-04-18T07:17:57.879Z,526.00
2023-04-18T07:18:57.902Z,530.00
2023-04-18T07:19:57.932Z,552.00
2023-04-18T07:20:57.981Z,545.00
2023-04-18T07:21:57.990Z,538.00
2023-04-18T07:22:57.994Z,534.00
2023-04-18T07:23:58.009Z,533.00
2023-04-18T07:24:57.994Z,528.00
2023-04-18T07:25:57.999Z,524.00
2023-04-18T07:26:58.007Z,518.00
2023-04-18T07:27:58.097Z,518.00
2023-04-18T07:28:58.009Z,540.00
2023-04-18T07:29:57.999Z,537.00
2023-04-18T07:30:58.056Z,536.00
2023-04-18T07:31:57.993Z,536.00
2023-04-18T07:32:58.006Z,537.00
2023-04-18T07:33:58.004Z,540.00
2023-04-18T07:34:58.007Z,543.00
2023-04-18T07:35:58.023Z,545.00
2023-04-18T07:36:58.022Z,552.00
2023-04-18T07:37:58.017Z,613.00
2023-04-18T07:38:58.028Z,626.00
2023-04-18T07:39:58.040Z,674.00
2023-04-18T07:40:58.008Z,713.00
2023-04-18T07:41:58.009Z,772.00
2023-04-18T07:42:58.002Z,811.00
2023-04-18T07:43:58.147Z,850.00
2023-04-18T07:44:57.989Z,894.00
2023-04-18T07:45:58.034Z,910.00
2023-04-18T07:46:57.964Z,951.00
2023-04-18T07:47:57.979Z,966.00
2023-04-18T07:48:57.955Z,973.00
2023-04-18T07:49:57.927Z,981.00
2023-04-18T07:50:57.928Z,1004.00
2023-04-18T07:51:57.917Z,1019.00
2023-04-18T07:52:57.962Z,1023.00
2023-04-18T07:53:57.994Z,1029.00
2023-04-18T07:54:58.035Z,1029.00
2023-04-18T07:55:58.070Z,1033.00
2023-04-18T07:56:58.116Z,1035.00
2023-04-18T07:57:58.108Z,1042.00
2023-04-18T07:58:58.095Z,1046.00
2023-04-18T07:59:58.256Z,1051.00
2023-04-18T08:00:58.043Z,1055.00
2023-04-18T08:01:58.073Z,1060.00
2023-04-18T08:02:58.173Z,1066.00
2023-04-18T08:03:58.059Z,1073.00
2023-04-18T08:04:58.239Z,1075.00
2023-04-18T08:05:57.954Z,1078.00
2023-04-18T08:06:57.908Z,1084.00
2023-04-18T08:07:57.882Z,1083.00
2023-04-18T08:08:57.862Z,1084.00
2023-04-18T08:09:57.836Z,1085.00
2023-04-18T08:10:57.814Z,1089.00
2023-04-18T08:11:57.780Z,1087.00
2023-04-18T08:12:57.756Z,1085.00
2023-04-18T08:13:57.717Z,1084.00
2023-04-18T08:14:57.715Z,1082.00
2023-04-18T08:15:57.849Z,1080.00
2023-04-18T08:16:57.726Z,1077.00
2023-04-18T08:17:57.780Z,1076.00
2023-04-18T08:18:57.798Z,1076.00
2023-04-18T08:19:57.842Z,1072.00
2023-04-18T08:20:57.872Z,1072.00
2023-04-18T08:21:57.907Z,1075.00
2023-04-18T08:23:07.552Z,1074.00
2023-04-18T08:23:58.893Z,1066.00
2023-04-18T08:25:05.059Z,1063.00
2023-04-18T08:25:58.872Z,1064.00
2023-04-18T08:26:57.832Z,1067.00
2023-04-18T08:27:57.813Z,1077.00
2023-04-18T08:28:57.813Z,1079.00
2023-04-18T08:29:57.786Z,1080.00
2023-04-18T08:30:57.745Z,1089.00
2023-04-18T08:31:57.931Z,1095.00
2023-04-18T08:32:57.737Z,1087.00
2023-04-18T08:33:57.688Z,1074.00
2023-04-18T08:34:57.658Z,1058.00
2023-04-18T08:35:57.628Z,996.00
2023-04-18T08:36:57.606Z,972.00
2023-04-18T08:37:57.563Z,957.00
2023-04-18T08:38:57.524Z,935.00
2023-04-18T08:39:57.525Z,899.00
2023-04-18T08:40:57.466Z,873.00
2023-04-18T08:41:57.449Z,839.00
2023-04-18T08:42:57.410Z,825.00
2023-04-18T08:43:57.386Z,810.00
2023-04-18T08:44:57.368Z,804.00
2023-04-18T08:45:57.371Z,790.00
2023-04-18T08:46:57.309Z,761.00
2023-04-18T08:47:57.355Z,747.00
2023-04-18T08:48:57.248Z,745.00
2023-04-18T08:49:57.238Z,756.00
2023-04-18T08:50:57.240Z,781.00
2023-04-18T08:51:57.245Z,843.00
2023-04-18T08:52:57.253Z,855.00
2023-04-18T08:53:57.281Z,847.00
2023-04-18T08:54:57.242Z,837.00
2023-04-18T08:55:57.420Z,819.00
2023-04-18T08:56:57.180Z,807.00
2023-04-18T08:57:57.148Z,800.00
2023-04-18T08:58:57.115Z,794.00
2023-04-18T08:59:57.089Z,788.00
2023-04-18T09:00:57.124Z,782.00
2023-04-18T09:01:57.260Z,778.00
2023-04-18T09:02:57.430Z,772.00
2023-04-18T09:03:57.059Z,768.00
2023-04-18T09:04:56.929Z,763.00
2023-04-18T09:05:56.895Z,761.00
2023-04-18T09:06:56.872Z,751.00
2023-04-18T09:07:56.828Z,746.00
2023-04-18T09:08:56.809Z,739.00
2023-04-18T09:09:56.780Z,728.00
2023-04-18T09:10:56.735Z,721.00
2023-04-18T09:11:56.710Z,718.00
2023-04-18T09:12:56.703Z,710.00
2023-04-18T09:13:56.705Z,705.00
2023-04-18T09:14:56.744Z,704.00
2023-04-18T09:15:56.714Z,697.00
2023-04-18T09:16:56.744Z,689.00
2023-04-18T09:17:56.811Z,681.00
2023-04-18T09:18:56.736Z,679.00
2023-04-18T09:19:56.927Z,676.00
2023-04-18T09:20:56.744Z,675.00
2023-04-18T09:21:56.689Z,675.00
2023-04-18T09:22:56.678Z,675.00
2023-04-18T09:23:56.623Z,671.00
2023-04-18T09:24:56.586Z,670.00
2023-04-18T09:25:56.565Z,670.00
2023-04-18T09:26:56.518Z,673.00
2023-04-18T09:27:56.489Z,673.00
2023-04-18T09:28:56.453Z,676.00
2023-04-18T09:29:57.935Z,676.00
2023-04-18T09:30:56.416Z,679.00
2023-04-18T09:31:56.360Z,681.00
2023-04-18T09:32:56.368Z,681.00
2023-04-18T09:33:56.330Z,682.00
2023-04-18T09:34:56.269Z,684.00
2023-04-18T09:35:56.311Z,685.00
2023-04-18T09:36:56.248Z,686.00
2023-04-18T09:37:56.205Z,686.00
2023-04-18T09:38:57.040Z,682.00
2023-04-18T09:39:56.145Z,684.00
2023-04-18T09:40:56.140Z,687.00
2023-04-18T09:41:56.135Z,687.00
2023-04-18T09:42:56.125Z,693.00
2023-04-18T09:43:56.081Z,917.00
2023-04-18T09:44:56.942Z,918.00
2023-04-18T09:45:56.038Z,915.00
2023-04-18T09:46:56.021Z,986.00
2023-04-18T09:47:56.001Z,1001.00
2023-04-18T09:48:55.916Z,1016.00
2023-04-18T09:49:55.876Z,1031.00
2023-04-18T09:50:55.856Z,1052.00
2023-04-18T09:51:55.848Z,1075.00
2023-04-18T09:52:55.788Z,1077.00
2023-04-18T09:53:55.755Z,1074.00
2023-04-18T09:54:55.740Z,1080.00
2023-04-18T09:55:57.611Z,1101.00
2023-04-18T09:56:55.653Z,1096.00
2023-04-18T09:57:55.622Z,1096.00
2023-04-18T09:58:55.611Z,1103.00
2023-04-18T09:59:55.594Z,1114.00
2023-04-18T10:00:55.563Z,1117.00
2023-04-18T10:01:55.602Z,1112.00
2023-04-18T10:02:55.572Z,1113.00
2023-04-18T10:03:55.524Z,1120.00
2023-04-18T10:04:55.510Z,1120.00
2023-04-18T10:05:57.690Z,1119.00
2023-04-18T10:06:55.384Z,1120.00
2023-04-18T10:07:55.360Z,1119.00
2023-04-18T10:08:55.310Z,1114.00
2023-04-18T10:09:55.306Z,1101.00
2023-04-18T10:10:55.265Z,1084.00
2023-04-18T10:11:55.229Z,1075.00
2023-04-18T10:12:55.204Z,1029.00
2023-04-18T10:13:55.167Z,1024.00
2023-04-18T10:14:55.130Z,1023.00
2023-04-18T10:15:55.112Z,1019.00
2023-04-18T10:16:55.062Z,989.00
2023-04-18T10:18:04.331Z,985.00
2023-04-18T10:18:55.998Z,975.00
2023-04-18T10:19:54.979Z,973.00
2023-04-18T10:20:54.942Z,969.00
2023-04-18T10:21:54.918Z,968.00
2023-04-18T10:22:54.872Z,962.00
2023-04-18T10:23:54.844Z,956.00
2023-04-18T10:24:54.812Z,948.00
2023-04-18T10:25:54.782Z,939.00
2023-04-18T10:26:54.748Z,932.00
2023-04-18T10:27:54.712Z,925.00
2023-04-18T10:28:55.058Z,919.00
2023-04-18T10:29:54.642Z,917.00
2023-04-18T10:30:54.617Z,914.00
2023-04-18T10:31:54.665Z,912.00
2023-04-18T10:32:54.612Z,909.00
2023-04-18T10:34:03.888Z,912.00
2023-04-18T10:34:54.468Z,907.00
2023-04-18T10:35:54.462Z,905.00
2023-04-18T10:36:54.396Z,907.00
2023-04-18T10:37:54.367Z,909.00
2023-04-18T10:38:54.327Z,907.00
2023-04-18T10:39:54.297Z,898.00
2023-04-18T10:40:54.266Z,866.00
2023-04-18T10:41:54.232Z,868.00
2023-04-18T10:42:54.214Z,879.00
2023-04-18T10:43:54.204Z,900.00
2023-04-18T10:44:54.151Z,910.00
2023-04-18T10:45:54.138Z,916.00
2023-04-18T10:46:54.132Z,926.00
2023-04-18T10:47:54.083Z,933.00
2023-04-18T10:48:54.035Z,939.00
2023-04-18T10:49:53.988Z,938.00
2023-04-18T10:50:53.956Z,896.00
2023-04-18T10:51:53.924Z,895.00
2023-04-18T10:52:53.886Z,900.00
2023-04-18T10:53:53.856Z,906.00
2023-04-18T10:54:53.819Z,900.00
2023-04-18T10:55:53.799Z,896.00
2023-04-18T10:56:53.783Z,897.00
2023-04-18T10:57:53.729Z,901.00
2023-04-18T10:58:53.695Z,904.00
2023-04-18T10:59:53.638Z,907.00
2023-04-18T11:00:53.626Z,911.00
2023-04-18T11:01:53.596Z,913.00
2023-04-18T11:02:53.821Z,917.00
2023-04-18T11:03:53.648Z,919.00
2023-04-18T11:04:53.458Z,921.00
2023-04-18T11:05:53.416Z,922.00
2023-04-18T11:06:53.395Z,923.00
2023-04-18T11:07:53.374Z,923.00
2023-04-18T11:08:53.324Z,927.00
2023-04-18T11:09:53.292Z,928.00
2023-04-18T11:10:53.254Z,936.00
2023-04-18T11:11:53.285Z,943.00
2023-04-18T11:12:53.230Z,950.00
2023-04-18T11:13:53.184Z,954.00
2023-04-18T11:14:53.138Z,959.00
2023-04-18T11:15:53.112Z,969.00
2023-04-18T11:16:53.119Z,980.00
2023-04-18T11:17:53.083Z,985.00
2023-04-18T11:18:53.017Z,973.00
2023-04-18T11:19:52.974Z,918.00
2023-04-18T11:20:52.934Z,914.00
2023-04-18T11:21:52.932Z,896.00
2023-04-18T11:22:52.872Z,891.00
2023-04-18T11:23:52.854Z,886.00
2023-04-18T11:24:52.795Z,888.00
2023-04-18T11:25:52.778Z,902.00
2023-04-18T11:26:52.722Z,958.00
2023-04-18T11:27:52.691Z,973.00
2023-04-18T11:28:52.665Z,978.00
2023-04-18T11:29:52.600Z,973.00
2023-04-18T11:30:52.566Z,968.00
2023-04-18T11:31:53.034Z,962.00
2023-04-18T11:32:52.529Z,948.00
2023-04-18T11:33:52.473Z,938.00
2023-04-18T11:34:52.395Z,927.00
2023-04-18T11:35:52.362Z,916.00
2023-04-18T11:36:52.332Z,904.00
2023-04-18T11:37:52.287Z,895.00
2023-04-18T11:38:52.252Z,886.00
2023-04-18T11:39:52.208Z,858.00
2023-04-18T11:40:52.170Z,851.00
2023-04-18T11:41:52.161Z,847.00
2023-04-18T11:42:52.102Z,833.00
2023-04-18T11:43:52.094Z,808.00
2023-04-18T11:44:52.043Z,786.00
2023-04-18T11:45:52.054Z,784.00
2023-04-18T11:46:51.992Z,777.00
2023-04-18T11:47:51.983Z,770.00
2023-04-18T11:48:51.911Z,767.00
2023-04-18T11:49:51.895Z,761.00
2023-04-18T11:50:51.852Z,751.00
2023-04-18T11:51:51.852Z,746.00
2023-04-18T11:52:51.798Z,742.00
2023-04-18T11:53:51.748Z,733.00
2023-04-18T11:54:51.712Z,728.00
2023-04-18T11:55:51.681Z,722.00
2023-04-18T11:56:51.649Z,714.00
2023-04-18T11:57:51.599Z,707.00
2023-04-18T11:58:51.589Z,705.00
2023-04-18T11:59:51.550Z,702.00
2023-04-18T12:00:51.481Z,696.00
2023-04-18T12:01:53.100Z,694.00
2023-04-18T12:02:51.574Z,689.00
2023-04-18T12:03:51.482Z,688.00
2023-04-18T12:04:51.566Z,687.00
2023-04-18T12:05:51.480Z,684.00
2023-04-18T12:06:51.281Z,680.00
2023-04-18T12:07:51.227Z,674.00
2023-04-18T12:08:52.384Z,665.00
2023-04-18T12:09:51.147Z,659.00
2023-04-18T12:10:51.121Z,653.00
2023-04-18T12:11:51.097Z,650.00
2023-04-18T12:12:51.053Z,645.00
2023-04-18T12:13:51.010Z,642.00
2023-04-18T12:14:50.975Z,639.00
2023-04-18T12:15:51.098Z,636.00
2023-04-18T12:16:50.931Z,634.00
2023-04-18T12:17:51.058Z,629.00
2023-04-18T12:18:50.855Z,627.00
2023-04-18T12:19:50.839Z,625.00
2023-04-18T12:20:50.861Z,621.00
2023-04-18T12:21:50.786Z,621.00
2023-04-18T12:22:50.735Z,617.00
2023-04-18T12:23:50.707Z,613.00
2023-04-18T12:24:50.671Z,610.00
2023-04-18T12:25:50.638Z,609.00
2023-04-18T12:26:50.640Z,608.00